To NAV CANADA Home Page Login to a new session Search on AWWS site Disclaimer Vers la page française équivalente Tips FAQ What's new on the site To the Forecasts and Observations / NOTAM section To "File a Flight Plan" website Publications and other links Update of the User's profile FIC Telephone Numbers My Weather Data Folder Route Weather Data Regional Weather Data Local Weather Data To the Forecasts and Observations / NOTAM section
Request Generated 05/26/2019 at 21:11:09 UTC . Weather information available at that time is displayed.

METAR/TAF

OTTAWA/MACDONALD-CARTIER INTL/ON    

METAR CYOW 262100Z 28013KT 15SM SCT050 22/11 A2988 RMK CU3 SLP121 DENSITY ALT 1400FT=
METAR CYOW 262000Z 27015KT 15SM BKN045 BKN230 22/12 A2988 RMK CU5CI1 CI TR SLP122 DENSITY ALT 1400FT=
METAR CYOW 261900Z 28015KT 15SM BKN047 BKN240 22/11 A2987 RMK CU5CI2 SLP118 DENSITY ALT 1400FT=

TAF CYOW 262038Z 2621/2718 27015G25KT P6SM SCT040 BKN240 TEMPO
2621/2623 BKN040 BKN240
FM262300 30012G22KT P6SM SCT050
BECMG 2623/2701 31010KT
FM271000 33008KT P6SM BKN030
FM271600 33005KT P6SM FEW040
BECMG 2716/2718 33010KT
RMK NXT FCST BY 270000Z=

OTTAWA/GATINEAU/QC    

METAR CYND 262100Z 31009G15KT 270V010 15SM FEW060 SCT220 22/10 A2987 RMK CU2CI1 SLP116 DENSITY ALT 1200FT=
METAR CYND 262000Z 28010G18KT 15SM FEW055 SCT240 23/12 A2986 RMK CU2CI2 SLP115 DENSITY ALT 1300FT=
METAR CYND 261900Z 30013G21KT 15SM SCT054 BKN240 22/11 A2986 RMK CU4CI2 SLP113 DENSITY ALT 1200FT=

TAF CYND 261738Z 2618/2701 30012G22KT P6SM BKN050 TEMPO 2618/2623
SCT050
FM262300 32010KT P6SM SCT050
BECMG 2623/2701 31007KT
RMK NXT FCST WILL BE ISSUED AT 271245Z=

MONTREAL/PIERRE-ELLIOTT-TRUDEAU INTL/QC    

METAR CYUL 262100Z 27015KT 250V330 30SM FEW060 BKN250 24/10 A2981 RMK CU1CI4 SLP096 DENSITY ALT 1400FT=
METAR CYUL 262000Z 26010G18KT 30SM SCT055 BKN250 24/12 A2980 RMK CU3CI4 SLP094 DENSITY ALT 1400FT=
METAR CYUL 261900Z 26013G20KT 30SM SCT052 SCT080 BKN250 24/12 A2980 RMK CU4AC1CI2 AC TR SLP094 DENSITY ALT 1300FT=

TAF CYUL 262038Z 2621/2718 27012G22KT P6SM SCT050
BECMG 2623/2701 32010KT
FM271200 36010KT P6SM BKN040
FM271700 28010KT P6SM FEW050
RMK NXT FCST BY 270000Z=

MONTREAL INTL (MIRABEL)/QC    

METAR CYMX 262100Z 33008KT 240V340 45SM FEW062 SCT250 23/11 A2982 RMK CU2CI2 SLP099 DENSITY ALT 1500FT=
METAR CYMX 262000Z 33013KT 280V350 45SM SCT060 BKN250 23/11 A2981 RMK CU3CI2 SLP096 DENSITY ALT 1400FT=
METAR CYMX 261900Z 31008G18KT 210V340 45SM SCT050 BKN060 BKN250 23/11 A2981 RMK CU4SC1CI2 SLP096 DENSITY ALT 1400FT=

TAF CYMX 261738Z 2618/2718 29008G18KT P6SM BKN040 TEMPO 2618/2622
SCT040
FM262200 30010G20KT P6SM SCT050
BECMG 2622/2624 31007KT
FM271100 33006KT P6SM BKN050
FM271700 30007KT P6SM FEW050
RMK NXT FCST BY 270000Z=

KINGSTON/ON    

METAR CYGK 262100Z 31008KT 15SM FEW060 BKN200 23/11 A2988 RMK CU1CI6 SLP120 DENSITY ALT 1400FT=
METAR CYGK 262000Z 28006KT 230V340 15SM FEW060 BKN200 24/11 A2988 RMK SC2CI5 SLP120 DENSITY ALT 1500FT=
METAR CYGK 261900Z 30010G20KT 280V340 15SM FEW060 BKN220 24/12 A2987 RMK CU1CI6 SLP118 DENSITY ALT 1500FT=

TAF CYGK 261938Z 2620/2703 30010KT P6SM FEW060
BECMG 2623/2701 34007KT
RMK NXT FCST WILL BE ISSUED AT 271145Z=

PETAWAWA/ON    

METAR CYWA 262100Z AUTO 34013KT 290V350 9SM FEW059 23/08 A2991 RMK SLP132=
METAR CYWA 262000Z AUTO 32007KT 290V350 9SM FEW052 FEW078 FEW086 21/09 A2991 RMK SLP131=
METAR CYWA 261900Z AUTO 33008KT 310V020 9SM BKN043 21/09 A2991 RMK SLP130=

TAF CYWA 261730Z 2618/2706 32012KT P6SM BKN030
BECMG 2622/2624 32005KT
RMK FCST BASED ON AUTO OBS. NXT FCST BY 270000Z=
Your time UTC time
Weather data provided by Environment Canada and NAV CANADA